Date,TemperatureHighF,TemperatureAvgF,TemperatureLowF,DewpointHighF,DewpointAvgF,DewpointLowF,HumidityHigh,HumidityAvg,HumidityLow,PressureMaxIn,PressureMinIn,WindSpeedMaxMPH,WindSpeedAvgMPH,GustSpeedMaxMPH,PrecipitationSumIn
2013-12-1,42.7,34.7,27.0,28.1,17.3,-60.1,74,57,1,29.19,28.94,7,2,9,0.00
2013-12-2,53.8,41.6,32.8,38.2,24.5,-56.7,74,60,1,28.93,28.58,12,3,17,0.00
2013-12-3,42.2,39.2,36.9,37.4,30.1,-54.7,86,78,1,28.70,28.57,8,3,10,0.00
2013-12-4,39.2,37.8,36.9,35.5,22.7,-54.7,87,74,1,28.68,28.60,7,2,8,0.02
2013-12-5,17.9,12.8,7.0,4.0,-5.6,-58.7,61,48,5,29.43,29.01,25,9,29,0.00
2013-12-6,13.0,6.6,0.9,-3.3,-13.2,-64.6,59,46,2,29.69,29.41,14,6,20,0.00
2013-12-7,13.8,5.8,-3.6,0.0,-15.6,-78.4,59,44,1,29.77,29.52,10,3,13,0.00
2013-12-8,19.7,15.0,11.1,12.6,2.0,-50.3,74,61,4,29.52,29.02,12,6,18,0.00
2013-12-9,16.2,6.2,1.0,8.5,-8.4,-61.7,71,55,3,29.32,29.10,18,6,21,0.00
2013-12-10,23.5,18.6,6.7,10.0,-0.4,-64.4,61,48,2,29.24,29.02,20,6,25,0.00
2013-12-11,26.0,8.4,1.6,19.8,-8.9,-74.9,77,52,1,29.64,29.22,15,5,22,0.00
2013-12-12,30.8,20.2,4.7,15.7,2.6,-59.9,65,51,1,29.50,29.14,13,4,16,0.00
2013-12-13,31.3,25.0,18.6,21.6,6.7,-66.5,71,57,1,29.14,28.96,11,4,18,0.01
2013-12-14,24.2,19.9,13.2,16.1,3.9,-67.2,77,60,1,29.19,29.07,13,6,20,0.00
2013-12-15,19.9,15.5,11.5,7.3,-1.3,-70.0,69,54,1,29.18,29.05,9,3,13,0.00
2013-12-16,14.0,13.1,12.7,5.7,-2.3,-49.1,70,61,4,29.08,29.06,7,4,10,0.00
2013-12-17,37.7,32.0,25.2,24.3,6.6,-62.5,73,44,1,29.24,29.10,23,7,32,0.00
2013-12-18,50.1,37.8,23.3,30.6,18.0,-53.9,68,49,1,29.19,28.77,18,5,26,0.00
2013-12-19,38.6,33.4,28.0,28.2,19.6,-58.9,82,66,1,28.90,28.78,12,5,17,0.00
2013-12-20,27.8,23.5,20.4,22.7,8.6,-65.4,81,66,1,28.94,28.84,15,5,18,0.00
2013-12-21,25.2,22.5,19.8,20.0,8.5,-65.9,81,66,1,28.93,28.78,14,4,20,0.00
2013-12-22,25.0,17.2,5.4,20.0,4.3,-50.8,82,64,3,29.35,28.79,16,7,20,0.00
2013-12-23,8.7,3.2,-2.5,0.0,-14.0,-62.3,65,46,3,29.57,29.35,16,7,21,0.00
2013-12-24,18.3,4.9,-9.4,11.7,-12.4,-83.0,75,49,1,29.57,29.21,14,4,19,0.00
2013-12-25,35.1,25.9,18.5,26.6,11.3,-64.1,77,62,1,29.29,29.16,18,6,18,0.08
2013-12-26,38.5,28.1,20.9,23.5,7.6,-54.2,71,52,3,29.26,29.11,14,6,16,0.01
2013-12-27,48.5,36.1,23.9,27.0,15.1,-62.2,71,51,1,29.27,29.10,13,6,21,0.02
2013-12-28,51.2,40.3,25.1,29.2,22.6,-36.1,76,54,3,29.11,28.82,22,8,27,0.00
2013-12-29,24.4,7.9,0.1,15.9,-9.7,-78.4,72,48,1,29.34,29.00,22,9,34,0.00
2013-12-30,18.8,9.0,-0.8,10.6,-8.1,-79.0,72,53,1,29.33,29.13,10,3,12,0.00
2013-12-31,14.9,10.6,7.2,4.6,-9.5,-72.4,70,51,1,29.33,29.17,13,5,16,0.00